TimeCST,TemperatureF,Dew PointF,Humidity,Sea Level PressureIn,VisibilityMPH,Wind Direction,Wind SpeedMPH,Gust SpeedMPH,PrecipitationIn,Events,Conditions,WindDirDegrees,DateUTC
12:00 AM,68,65,87,29.84,12,ENE,3.5,,,,Clear,60,2013-06-27 06:00:00
12:00 AM,68.0,64.4,88,30.02,-9999.0,ENE,3.5,-,N/A,,Clear,60,2013-06-27 06:00:00
1:00 AM,68.0,64.4,88,30.01,-9999.0,NNE,4.6,-,N/A,,Clear,20,2013-06-27 07:00:00
2:00 AM,68.0,64.4,88,30.00,-9999.0,East,3.5,-,N/A,,Clear,80,2013-06-27 08:00:00
3:00 AM,68,64,83,29.82,12,ENE,5.8,,,,Mostly Cloudy,60,2013-06-27 09:00:00
3:00 AM,68.0,64.4,88,29.99,-9999.0,ENE,5.8,-,N/A,,Clear,60,2013-06-27 09:00:00
4:00 AM,69.8,62.6,78,30.00,-9999.0,East,3.5,-,N/A,,Clear,100,2013-06-27 10:00:00
5:00 AM,69.8,64.4,83,30.00,6.2,North,2.3,-,N/A,,Mostly Cloudy,360,2013-06-27 11:00:00
5:45 AM,71.6,64.4,78,30.02,6.2,ENE,6.9,-,N/A,Rain,Light Rain,60,2013-06-27 11:45:00
6:00 AM,70,65,80,29.86,6,ENE,6.9,,,Rain,Light Rain,60,2013-06-27 12:00:00
6:00 AM,69.8,64.4,83,30.02,6.2,ENE,6.9,-,N/A,Rain,Light Rain,60,2013-06-27 12:00:00
7:00 AM,71.6,64.4,78,30.02,6.2,ENE,5.8,-,N/A,,Mostly Cloudy,70,2013-06-27 13:00:00
8:00 AM,77.0,64.4,65,30.03,6.2,North,4.6,-,N/A,,Mostly Cloudy,10,2013-06-27 14:00:00
9:00 AM,77,66,60,29.86,12,East,4.6,,,,Scattered Clouds,80,2013-06-27 15:00:00
9:00 AM,77.0,66.2,69,30.02,6.2,East,4.6,-,N/A,,Mostly Cloudy,80,2013-06-27 15:00:00
10:00 AM,77.0,64.4,65,30.02,6.2,ESE,9.2,-,N/A,,Mostly Cloudy,110,2013-06-27 16:00:00
11:00 AM,75.2,62.6,65,30.03,6.2,SE,5.8,-,N/A,,Mostly Cloudy,140,2013-06-27 17:00:00
12:00 PM,77,63,54,29.86,12,East,8.1,,,Snow,Rain,100,2013-06-27 18:00:00
12:00 PM,77.0,62.6,61,30.02,6.2,East,8.1,-,N/A,,Mostly Cloudy,100,2013-06-27 18:00:00
1:00 PM,80.6,64.4,58,29.99,6.2,East,4.6,-,N/A,,Mostly Cloudy,100,2013-06-27 19:00:00
2:00 PM,78.8,64.4,61,29.99,6.2,ESE,8.1,-,N/A,,Mostly Cloudy,120,2013-06-27 20:00:00
3:00 PM,78,64,54,29.81,12,SE,5.8,,,,Overcast,140,2013-06-27 21:00:00
3:00 PM,78.8,64.4,61,29.97,6.2,SE,5.8,-,N/A,,Mostly Cloudy,140,2013-06-27 21:00:00
4:00 PM,75.2,69.8,83,29.98,6.2,WSW,6.9,-,N/A,,Mostly Cloudy,240,2013-06-27 22:00:00
5:00 PM,73.4,68.0,83,29.99,6.2,SW,6.9,-,N/A,,Mostly Cloudy,230,2013-06-27 23:00:00
6:00 PM,73,64,66,29.88,12,ESE,3.5,,,,Overcast,110,2013-06-28 00:00:00
6:00 PM,73.4,64.4,73,30.01,6.2,ESE,3.5,-,N/A,,Overcast,110,2013-06-28 00:00:00
7:00 PM,71.6,62.6,73,30.03,6.2,East,5.8,-,N/A,,Scattered Clouds,90,2013-06-28 01:00:00
8:00 PM,71.6,62.6,73,30.03,6.2,ENE,6.9,-,N/A,,Scattered Clouds,60,2013-06-28 02:00:00
9:00 PM,70,66,83,29.89,12,South,4.6,,,Fog,Patches of Fog,180,2013-06-28 03:00:00
9:00 PM,69.8,66.2,88,30.05,6.2,South,4.6,-,N/A,Fog,Patches of Fog,180,2013-06-28 03:00:00
9:15 PM,69.8,68.0,94,30.05,5.0,WSW,4.6,-,N/A,,Scattered Clouds,240,2013-06-28 03:15:00
10:00 PM,69.8,68.0,94,30.06,5.0,SSW,4.6,-,N/A,,Mostly Cloudy,200,2013-06-28 04:00:00
11:00 PM,69.8,66.2,88,30.06,6.2,East,3.5,-,N/A,,Mostly Cloudy,90,2013-06-28 05:00:00